createdAt,value
2019-06-26T00:00:09.098Z,74.47
2019-06-26T00:01:09.016Z,74.47
2019-06-26T00:02:09.001Z,74.87
2019-06-26T00:03:09.007Z,75.67
2019-06-26T00:04:09.000Z,73.97
2019-06-26T00:05:09.174Z,74.37
2019-06-26T00:06:08.963Z,74.97
2019-06-26T00:07:08.980Z,74.47
2019-06-26T00:08:09.002Z,74.57
2019-06-26T00:09:08.931Z,74.30
2019-06-26T00:10:08.909Z,75.07
2019-06-26T00:11:08.911Z,75.37
2019-06-26T00:12:08.893Z,75.87
2019-06-26T00:13:08.879Z,75.70
2019-06-26T00:14:08.931Z,75.60
2019-06-26T00:15:08.877Z,74.80
2019-06-26T00:16:08.859Z,76.10
2019-06-26T00:17:08.827Z,75.80
2019-06-26T00:18:08.815Z,75.80
2019-06-26T00:19:08.806Z,76.20
2019-06-26T00:20:08.835Z,75.80
2019-06-26T00:21:08.793Z,75.50
2019-06-26T00:22:08.772Z,75.31
2019-06-26T00:23:08.778Z,76.10
2019-06-26T00:24:08.745Z,76.24
2019-06-26T00:25:08.772Z,76.34
2019-06-26T00:26:08.762Z,75.74
2019-06-26T00:27:08.736Z,75.94
2019-06-26T00:28:08.703Z,76.54
2019-06-26T00:29:08.723Z,74.80
2019-06-26T00:30:08.694Z,75.74
2019-06-26T00:31:08.706Z,74.80
2019-06-26T00:32:08.684Z,75.84
2019-06-26T00:33:08.664Z,75.84
2019-06-26T00:34:08.656Z,75.84
2019-06-26T00:35:08.639Z,76.04
2019-06-26T00:36:08.657Z,76.14
2019-06-26T00:37:08.640Z,75.80
2019-06-26T00:38:08.609Z,76.30
2019-06-26T00:39:08.601Z,76.04
2019-06-26T00:40:08.585Z,75.54
2019-06-26T00:41:08.567Z,76.20
2019-06-26T00:42:08.596Z,76.73
2019-06-26T00:43:08.564Z,76.43
2019-06-26T00:44:08.553Z,76.73
2019-06-26T00:45:08.558Z,76.93
2019-06-26T00:46:08.541Z,76.73
2019-06-26T00:47:08.511Z,76.93
2019-06-26T00:48:08.495Z,76.93
2019-06-26T00:49:08.547Z,76.83
2019-06-26T00:50:08.496Z,77.63
2019-06-26T00:51:08.469Z,76.54
2019-06-26T00:52:08.463Z,76.83
2019-06-26T00:53:08.451Z,77.03
2019-06-26T00:54:08.573Z,76.24
2019-06-26T00:55:08.630Z,75.64
2019-06-26T00:56:08.433Z,77.63
2019-06-26T00:57:08.411Z,76.34
2019-06-26T00:58:08.396Z,76.54
2019-06-26T00:59:08.412Z,76.93
2019-06-26T01:00:08.404Z,76.83
2019-06-26T01:01:08.555Z,77.63
2019-06-26T01:02:08.348Z,78.23
2019-06-26T01:03:08.402Z,77.73
2019-06-26T01:04:08.533Z,76.93
2019-06-26T01:05:08.345Z,77.83
2019-06-26T01:06:08.307Z,77.63
2019-06-26T01:07:08.294Z,77.63
2019-06-26T01:08:08.482Z,77.43
2019-06-26T01:09:08.274Z,77.09
2019-06-26T01:10:08.269Z,77.73
2019-06-26T01:11:08.279Z,76.93
2019-06-26T01:12:08.259Z,76.93
2019-06-26T01:13:08.296Z,77.50
2019-06-26T01:14:08.223Z,77.63
2019-06-26T01:15:08.242Z,78.23
2019-06-26T01:16:08.222Z,78.13
2019-06-26T01:17:08.196Z,77.73
2019-06-26T01:18:08.195Z,77.23
2019-06-26T01:19:08.187Z,77.63
2019-06-26T01:20:08.159Z,77.83
2019-06-26T01:21:08.175Z,77.03
2019-06-26T01:22:08.138Z,78.63
2019-06-26T01:23:08.147Z,78.53
2019-06-26T01:24:08.138Z,78.53
2019-06-26T01:25:08.108Z,78.63
2019-06-26T01:26:08.107Z,78.69
2019-06-26T01:27:08.096Z,78.53
2019-06-26T01:28:08.082Z,78.23
2019-06-26T01:29:08.084Z,78.53
2019-06-26T01:30:08.231Z,77.83
2019-06-26T01:31:08.039Z,78.33
2019-06-26T01:32:08.040Z,78.73
2019-06-26T01:33:08.015Z,78.33
2019-06-26T01:34:08.014Z,79.39
2019-06-26T01:35:08.006Z,77.93
2019-06-26T01:36:08.050Z,78.92
2019-06-26T01:37:07.988Z,79.03
2019-06-26T01:38:07.967Z,79.33
2019-06-26T01:39:07.952Z,78.92
2019-06-26T01:40:07.940Z,79.22
2019-06-26T01:41:07.930Z,80.22
2019-06-26T01:42:07.960Z,79.03
2019-06-26T01:43:07.943Z,79.22
2019-06-26T01:44:14.654Z,79.43
2019-06-26T01:45:08.882Z,80.12
2019-06-26T01:46:07.912Z,79.72
2019-06-26T01:47:07.890Z,80.42
2019-06-26T01:48:07.861Z,79.93
2019-06-26T01:49:07.870Z,80.32
2019-06-26T01:50:07.861Z,80.12
2019-06-26T01:51:07.842Z,79.72
2019-06-26T01:52:07.818Z,80.02
2019-06-26T01:53:07.802Z,80.12
2019-06-26T01:54:07.819Z,81.32
2019-06-26T01:55:07.800Z,80.52
2019-06-26T01:56:07.780Z,80.86
2019-06-26T01:57:07.784Z,81.06
2019-06-26T01:58:07.770Z,81.36
2019-06-26T01:59:07.738Z,81.85
2019-06-26T02:00:07.756Z,81.46
2019-06-26T02:01:07.751Z,81.06
2019-06-26T02:02:07.711Z,81.56
2019-06-26T02:03:07.691Z,82.15
2019-06-26T02:04:07.690Z,81.46
2019-06-26T02:05:07.694Z,81.16
2019-06-26T02:06:07.678Z,81.56
2019-06-26T02:07:07.748Z,81.96
2019-06-26T02:08:07.655Z,81.96
2019-06-26T02:09:07.674Z,82.65
2019-06-26T02:10:07.936Z,81.46
2019-06-26T02:11:07.645Z,81.96
2019-06-26T02:12:07.614Z,82.26
2019-06-26T02:13:07.605Z,81.60
2019-06-26T02:14:07.587Z,83.09
2019-06-26T02:15:07.575Z,83.49
2019-06-26T02:16:07.572Z,84.09
2019-06-26T02:17:07.560Z,84.09
2019-06-26T02:18:07.553Z,84.09
2019-06-26T02:19:07.531Z,83.99
2019-06-26T02:20:07.626Z,84.79
2019-06-26T02:21:07.546Z,84.99
2019-06-26T02:22:07.539Z,84.39
2019-06-26T02:23:07.473Z,84.29
2019-06-26T02:24:07.458Z,84.69
2019-06-26T02:25:07.474Z,83.09
2019-06-26T02:26:07.439Z,84.19
2019-06-26T02:27:07.565Z,83.89
2019-06-26T02:28:07.421Z,84.89
2019-06-26T02:29:07.409Z,85.09
2019-06-26T02:30:07.424Z,86.03
2019-06-26T02:31:07.407Z,86.88
2019-06-26T02:32:07.377Z,86.63
2019-06-26T02:33:07.384Z,86.88
2019-06-26T02:34:07.353Z,85.49
2019-06-26T02:35:09.752Z,85.23
2019-06-26T02:36:07.341Z,85.09
2019-06-26T02:37:07.353Z,84.73
2019-06-26T02:38:07.306Z,85.69
2019-06-26T02:39:07.492Z,85.93
2019-06-26T02:40:07.296Z,85.13
2019-06-26T02:41:07.277Z,86.52
2019-06-26T02:42:07.280Z,87.32
2019-06-26T02:43:07.516Z,85.33
2019-06-26T02:44:07.258Z,85.97
2019-06-26T02:45:07.315Z,86.36
2019-06-26T02:46:07.231Z,87.27
2019-06-26T02:47:19.850Z,86.77
2019-06-26T02:48:08.209Z,86.47
2019-06-26T02:49:07.190Z,85.87
2019-06-26T02:50:07.176Z,86.17
2019-06-26T02:51:07.195Z,86.66
2019-06-26T02:52:07.158Z,86.77
2019-06-26T02:53:07.158Z,87.16
2019-06-26T02:54:07.177Z,86.97
2019-06-26T02:55:07.126Z,86.47
2019-06-26T02:56:07.159Z,86.97
2019-06-26T02:57:07.096Z,86.77
2019-06-26T02:58:07.101Z,86.97
2019-06-26T02:59:07.113Z,86.36
2019-06-26T03:00:07.159Z,86.27
2019-06-26T03:01:07.090Z,86.27
2019-06-26T03:02:07.045Z,86.27
2019-06-26T03:03:07.027Z,88.46
2019-06-26T03:04:07.021Z,87.96
2019-06-26T03:05:07.025Z,86.71
2019-06-26T03:06:07.018Z,87.81
2019-06-26T03:07:07.016Z,87.76
2019-06-26T03:08:06.985Z,87.81
2019-06-26T03:09:06.964Z,87.91
2019-06-26T03:10:06.970Z,87.71
2019-06-26T03:11:06.977Z,87.61
2019-06-26T03:12:06.933Z,87.81
2019-06-26T03:13:06.936Z,87.71
2019-06-26T03:14:06.918Z,87.81
2019-06-26T03:15:09.380Z,87.81
2019-06-26T03:16:06.900Z,88.01
2019-06-26T03:17:06.924Z,87.81
2019-06-26T03:18:06.871Z,87.71
2019-06-26T03:19:06.864Z,88.81
2019-06-26T03:20:06.859Z,88.60
2019-06-26T03:21:06.870Z,88.31
2019-06-26T03:22:06.850Z,88.90
2019-06-26T03:23:06.827Z,88.21
2019-06-26T03:24:06.828Z,88.51
2019-06-26T03:25:06.812Z,88.51
2019-06-26T03:26:06.797Z,87.51
2019-06-26T03:27:09.007Z,87.21
2019-06-26T03:28:06.766Z,87.61
2019-06-26T03:29:06.761Z,88.60
2019-06-26T03:30:06.785Z,87.81
2019-06-26T03:31:06.751Z,87.51
2019-06-26T03:32:06.737Z,88.21
2019-06-26T03:33:06.707Z,88.60
2019-06-26T03:34:06.711Z,88.40
2019-06-26T03:35:06.722Z,87.30
2019-06-26T03:36:06.671Z,88.90
2019-06-26T03:37:06.677Z,88.60
2019-06-26T03:38:06.684Z,88.21
2019-06-26T03:39:06.632Z,87.81
2019-06-26T03:40:06.938Z,87.41
2019-06-26T03:41:06.625Z,88.90
2019-06-26T03:42:06.613Z,88.60
2019-06-26T03:43:06.608Z,88.31
2019-06-26T03:44:06.598Z,88.01
2019-06-26T03:45:06.580Z,88.17
2019-06-26T03:46:06.602Z,87.76
2019-06-26T03:47:06.556Z,88.76
2019-06-26T03:48:06.700Z,88.26
2019-06-26T03:49:06.532Z,87.66
2019-06-26T03:50:06.531Z,87.46
2019-06-26T03:51:06.545Z,87.76
2019-06-26T03:52:06.503Z,87.66
2019-06-26T03:53:06.512Z,87.87
2019-06-26T03:54:06.550Z,88.46
2019-06-26T03:55:06.508Z,87.82
2019-06-26T03:56:06.495Z,87.76
2019-06-26T03:57:06.445Z,88.32
2019-06-26T03:58:06.442Z,88.12
2019-06-26T03:59:06.460Z,88.32
2019-06-26T04:00:06.451Z,87.92
2019-06-26T04:01:06.397Z,88.22
2019-06-26T04:02:06.384Z,88.32
2019-06-26T04:03:06.446Z,87.78
2019-06-26T04:04:06.387Z,86.72
2019-06-26T04:05:06.374Z,87.78
2019-06-26T04:06:06.347Z,87.88
2019-06-26T04:07:06.349Z,86.88
2019-06-26T04:08:06.319Z,86.49
2019-06-26T04:09:06.326Z,86.88
2019-06-26T04:10:06.303Z,85.85
2019-06-26T04:11:06.290Z,86.24
2019-06-26T04:12:06.282Z,85.25
2019-06-26T04:13:06.286Z,85.64
2019-06-26T04:14:06.284Z,85.35
2019-06-26T04:15:06.245Z,86.04
2019-06-26T04:16:06.230Z,86.10
2019-06-26T04:17:06.221Z,85.60
2019-06-26T04:18:06.215Z,84.81
2019-06-26T04:19:06.239Z,85.30
2019-06-26T04:20:06.210Z,84.61
2019-06-26T04:21:06.174Z,84.27
2019-06-26T04:22:06.163Z,83.81
2019-06-26T04:23:06.156Z,84.01
2019-06-26T04:24:06.171Z,84.86
2019-06-26T04:25:06.129Z,84.56
2019-06-26T04:26:06.169Z,83.77
2019-06-26T04:27:06.113Z,83.73
2019-06-26T04:28:06.535Z,83.53
2019-06-26T04:29:06.113Z,83.43
2019-06-26T04:30:06.166Z,83.19
2019-06-26T04:31:06.073Z,83.59
2019-06-26T04:32:06.085Z,83.39
2019-06-26T04:33:06.049Z,82.70
2019-06-26T04:34:06.058Z,83.39
2019-06-26T04:35:06.029Z,82.46
2019-06-26T04:36:06.015Z,82.65
2019-06-26T04:37:06.005Z,81.66
2019-06-26T04:38:06.032Z,81.76
2019-06-26T04:39:06.099Z,81.82
2019-06-26T04:40:05.968Z,80.83
2019-06-26T04:41:05.964Z,80.88
2019-06-26T04:42:05.951Z,80.59
2019-06-26T04:43:05.941Z,80.69
2019-06-26T04:44:05.939Z,79.90
2019-06-26T04:45:05.931Z,80.05
2019-06-26T04:46:05.897Z,79.82
2019-06-26T04:47:05.901Z,79.12
2019-06-26T04:48:07.177Z,78.39
2019-06-26T04:49:05.884Z,77.99
2019-06-26T04:50:05.930Z,77.69
2019-06-26T04:51:05.844Z,77.36
2019-06-26T04:52:05.839Z,76.53
2019-06-26T04:53:05.859Z,75.93
2019-06-26T04:54:05.811Z,75.50
2019-06-26T04:55:05.825Z,74.77
2019-06-26T04:56:05.821Z,73.38
2019-06-26T04:57:05.783Z,73.94
2019-06-26T04:58:05.769Z,72.96
2019-06-26T04:59:05.765Z,73.32
2019-06-26T05:00:05.855Z,72.03
2019-06-26T05:01:05.747Z,71.99
2019-06-26T05:02:05.800Z,72.09
2019-06-26T05:03:05.713Z,72.09
2019-06-26T05:04:05.709Z,71.47
2019-06-26T05:05:05.714Z,71.17
2019-06-26T05:06:05.693Z,71.56
2019-06-26T05:07:05.677Z,70.74
2019-06-26T05:08:05.683Z,70.04
2019-06-26T05:09:05.656Z,69.32
2019-06-26T05:10:05.672Z,69.22
2019-06-26T05:11:05.632Z,69.09
2019-06-26T05:12:05.620Z,68.37
2019-06-26T05:13:05.610Z,67.97
2019-06-26T05:14:05.639Z,67.44
2019-06-26T05:15:05.607Z,67.05
2019-06-26T05:16:15.090Z,67.25
2019-06-26T05:17:06.565Z,67.25
2019-06-26T05:18:05.551Z,67.94
2019-06-26T05:19:05.540Z,67.74
2019-06-26T05:20:05.760Z,67.68
2019-06-26T05:21:05.547Z,67.94
2019-06-26T05:22:05.506Z,68.27
2019-06-26T05:23:05.495Z,67.55
2019-06-26T05:24:05.500Z,67.68
2019-06-26T05:25:06.168Z,67.28
2019-06-26T05:26:05.460Z,68.37
2019-06-26T05:27:05.463Z,68.50
2019-06-26T05:28:08.277Z,68.70
2019-06-26T05:29:05.453Z,67.91
2019-06-26T05:30:05.419Z,69.02
2019-06-26T05:31:05.442Z,69.29
2019-06-26T05:32:05.397Z,68.83
2019-06-26T05:33:05.432Z,69.12
2019-06-26T05:34:05.395Z,68.99
2019-06-26T05:35:05.379Z,69.49
2019-06-26T05:36:05.377Z,69.42
2019-06-26T05:37:05.364Z,69.38
2019-06-26T05:38:05.336Z,69.68
2019-06-26T05:39:05.359Z,69.19
2019-06-26T05:40:06.332Z,68.79
2019-06-26T05:41:05.324Z,68.79
2019-06-26T05:42:06.764Z,69.52
2019-06-26T05:43:05.280Z,69.82
2019-06-26T05:44:05.270Z,70.15
2019-06-26T05:45:05.368Z,69.85
2019-06-26T05:46:05.307Z,69.71
2019-06-26T05:47:07.175Z,69.12
2019-06-26T05:48:05.232Z,68.79
2019-06-26T05:49:05.217Z,68.86
2019-06-26T05:50:05.203Z,67.94
2019-06-26T05:51:05.219Z,68.04
2019-06-26T05:52:05.235Z,67.77
2019-06-26T05:53:05.172Z,67.18
2019-06-26T05:54:05.190Z,67.55
2019-06-26T05:55:05.152Z,67.74
2019-06-26T05:56:05.238Z,68.50
2019-06-26T05:57:05.137Z,69.32
2019-06-26T05:58:05.180Z,69.59
2019-06-26T05:59:05.115Z,69.78
2019-06-26T06:00:05.098Z,68.89
2019-06-26T06:01:05.104Z,68.66
2019-06-26T06:02:05.099Z,68.33
2019-06-26T06:03:05.090Z,68.13
2019-06-26T06:04:05.070Z,68.27
2019-06-26T06:05:05.104Z,68.89
2019-06-26T06:06:05.054Z,68.79
2019-06-26T06:07:05.050Z,69.35
2019-06-26T06:08:05.014Z,67.15
2019-06-26T06:09:05.006Z,67.68
2019-06-26T06:10:05.017Z,68.20
2019-06-26T06:11:04.979Z,69.29
2019-06-26T06:12:04.989Z,69.45
2019-06-26T06:13:04.993Z,67.65
2019-06-26T06:14:04.948Z,67.44
2019-06-26T06:15:04.958Z,67.55
2019-06-26T06:16:06.542Z,67.74
2019-06-26T06:17:04.940Z,66.92
2019-06-26T06:18:04.919Z,66.92
2019-06-26T06:19:04.909Z,65.61
2019-06-26T06:20:04.883Z,65.18
2019-06-26T06:21:04.914Z,65.41
2019-06-26T06:22:04.914Z,65.61
2019-06-26T06:23:04.854Z,65.34
2019-06-26T06:24:04.849Z,67.02
2019-06-26T06:25:04.852Z,66.72
2019-06-26T06:26:04.822Z,66.82
2019-06-26T06:27:04.828Z,66.13
2019-06-26T06:28:04.801Z,65.61
2019-06-26T06:29:04.790Z,65.38
2019-06-26T06:30:04.818Z,64.59
2019-06-26T06:31:04.767Z,64.36
2019-06-26T06:32:04.778Z,63.78
2019-06-26T06:33:04.747Z,64.46
2019-06-26T06:34:04.736Z,64.14
2019-06-26T06:35:04.728Z,63.74
2019-06-26T06:36:04.713Z,64.14
2019-06-26T06:37:04.723Z,63.84
2019-06-26T06:38:04.714Z,63.54
2019-06-26T06:39:04.685Z,63.94
2019-06-26T06:40:04.672Z,64.14
2019-06-26T06:41:04.661Z,63.22
2019-06-26T06:42:04.675Z,64.01
2019-06-26T06:43:04.642Z,63.91
2019-06-26T06:44:04.631Z,62.50
2019-06-26T06:45:04.619Z,63.29
2019-06-26T06:46:04.607Z,62.93
2019-06-26T06:47:05.662Z,63.42
2019-06-26T06:48:04.624Z,63.19
2019-06-26T06:49:04.575Z,61.88
2019-06-26T06:50:04.564Z,61.49
2019-06-26T06:51:04.558Z,61.61
2019-06-26T06:52:04.545Z,63.02
2019-06-26T06:53:04.550Z,64.14
2019-06-26T06:54:04.570Z,63.45
2019-06-26T06:55:04.565Z,63.35
2019-06-26T06:56:04.501Z,63.22
2019-06-26T06:57:04.495Z,62.73
2019-06-26T06:58:04.510Z,62.04
2019-06-26T06:59:04.471Z,61.74
2019-06-26T07:00:04.496Z,63.61
2019-06-26T07:01:04.474Z,62.82
2019-06-26T07:02:04.440Z,61.68
2019-06-26T07:03:04.451Z,61.78
2019-06-26T07:04:04.430Z,61.76
2019-06-26T07:05:04.409Z,60.47
2019-06-26T07:06:04.394Z,59.17
2019-06-26T07:07:04.389Z,60.47
2019-06-26T07:08:04.403Z,61.07
2019-06-26T07:09:04.366Z,60.73
2019-06-26T07:10:04.355Z,60.70
2019-06-26T07:11:04.379Z,60.58
2019-06-26T07:12:04.333Z,60.64
2019-06-26T07:13:04.350Z,59.50
2019-06-26T07:14:04.317Z,59.08
2019-06-26T07:15:04.308Z,58.47
2019-06-26T07:16:04.307Z,56.48
2019-06-26T07:17:19.463Z,56.36
2019-06-26T07:18:05.294Z,55.80
2019-06-26T07:19:04.265Z,57.84
2019-06-26T07:20:04.256Z,57.97
2019-06-26T07:21:04.245Z,59.53
2019-06-26T07:22:07.178Z,58.95
2019-06-26T07:23:04.251Z,59.28
2019-06-26T07:24:04.247Z,56.90
2019-06-26T07:25:04.199Z,57.36
2019-06-26T07:26:04.194Z,57.24
2019-06-26T07:27:04.194Z,56.48
2019-06-26T07:28:04.213Z,56.29
2019-06-26T07:29:04.163Z,55.99
2019-06-26T07:30:04.159Z,56.46
2019-06-26T07:31:04.144Z,55.16
2019-06-26T07:32:04.156Z,55.65
2019-06-26T07:33:04.165Z,54.42
2019-06-26T07:34:04.143Z,52.80
2019-06-26T07:35:04.101Z,52.29
2019-06-26T07:36:04.088Z,52.04
2019-06-26T07:37:04.077Z,51.61
2019-06-26T07:38:04.197Z,51.36
2019-06-26T07:39:04.059Z,52.56
2019-06-26T07:40:04.055Z,51.80
2019-06-26T07:41:04.031Z,51.63
2019-06-26T07:42:04.023Z,52.54
2019-06-26T07:43:04.016Z,51.31
2019-06-26T07:44:04.051Z,51.17
2019-06-26T07:45:03.999Z,49.85
2019-06-26T07:46:03.980Z,49.63
2019-06-26T07:47:04.017Z,48.61
2019-06-26T07:48:03.961Z,46.91
2019-06-26T07:49:03.973Z,46.69
2019-06-26T07:50:03.944Z,44.56
2019-06-26T07:51:03.928Z,47.06
2019-06-26T07:52:03.920Z,45.94
2019-06-26T07:53:03.908Z,46.74
2019-06-26T07:54:03.921Z,47.23
2019-06-26T07:55:03.890Z,45.94
2019-06-26T07:56:03.877Z,45.14
2019-06-26T07:57:03.912Z,44.90
2019-06-26T07:58:03.898Z,45.47
2019-06-26T07:59:03.875Z,45.27
2019-06-26T08:00:03.852Z,43.87
2019-06-26T08:01:03.845Z,44.45
2019-06-26T08:02:03.824Z,43.72
2019-06-26T08:03:04.642Z,45.00
2019-06-26T08:04:03.820Z,44.92
2019-06-26T08:05:03.791Z,45.48
2019-06-26T08:06:03.780Z,45.82
2019-06-26T08:07:03.795Z,45.12
2019-06-26T08:08:03.767Z,44.73
2019-06-26T08:09:03.769Z,45.97
2019-06-26T08:10:03.774Z,44.78
2019-06-26T08:11:06.392Z,44.44
2019-06-26T08:12:03.723Z,46.14
2019-06-26T08:13:03.712Z,44.97
2019-06-26T08:14:04.073Z,46.25
2019-06-26T08:15:03.700Z,47.15
2019-06-26T08:16:03.691Z,45.87
2019-06-26T08:17:03.676Z,45.92
2019-06-26T08:18:03.671Z,44.59
2019-06-26T08:19:03.694Z,44.54
2019-06-26T08:20:03.657Z,45.20
2019-06-26T08:21:12.298Z,44.09
2019-06-26T08:22:04.623Z,44.16
2019-06-26T08:23:03.655Z,42.80
2019-06-26T08:24:04.188Z,43.48
2019-06-26T08:25:03.599Z,43.60
2019-06-26T08:26:03.602Z,42.90
2019-06-26T08:27:03.590Z,42.93
2019-06-26T08:28:03.587Z,41.61
2019-06-26T08:29:04.077Z,40.65
2019-06-26T08:30:03.613Z,42.28
2019-06-26T08:31:03.546Z,43.87
2019-06-26T08:32:03.537Z,43.01
2019-06-26T08:33:03.578Z,41.20
2019-06-26T08:34:03.531Z,39.04
2019-06-26T08:35:04.322Z,39.89
2019-06-26T08:36:03.508Z,39.14
2019-06-26T08:37:03.522Z,40.70
2019-06-26T08:38:10.986Z,40.57
2019-06-26T08:39:04.473Z,41.61
2019-06-26T08:40:03.517Z,41.89
2019-06-26T08:41:03.483Z,41.99
2019-06-26T08:42:03.475Z,42.82
2019-06-26T08:43:03.459Z,42.00
2019-06-26T08:44:03.451Z,41.03
2019-06-26T08:45:03.505Z,40.99
2019-06-26T08:46:03.419Z,39.89
2019-06-26T08:47:03.403Z,38.68
2019-06-26T08:48:17.367Z,36.86
2019-06-26T08:49:04.405Z,36.13
2019-06-26T08:50:03.454Z,35.59
2019-06-26T08:51:03.383Z,36.20
2019-06-26T08:52:03.357Z,35.65
2019-06-26T08:53:03.352Z,35.04
2019-06-26T08:54:04.857Z,35.08
2019-06-26T08:55:03.359Z,33.65
2019-06-26T08:56:03.359Z,35.00
2019-06-26T08:57:03.329Z,34.63
2019-06-26T08:58:03.323Z,35.20
2019-06-26T08:59:03.309Z,35.14
2019-06-26T09:00:03.389Z,35.00
2019-06-26T09:01:03.316Z,37.01
2019-06-26T09:02:03.286Z,37.32
2019-06-26T09:03:03.274Z,37.72
2019-06-26T09:04:03.279Z,38.66
2019-06-26T09:05:03.322Z,38.74
2019-06-26T09:06:03.263Z,38.49
2019-06-26T09:07:03.245Z,36.74
2019-06-26T09:08:03.306Z,35.72
2019-06-26T09:09:03.228Z,37.58
2019-06-26T09:10:03.374Z,39.12
2019-06-26T09:11:03.209Z,38.76
2019-06-26T09:12:03.226Z,37.16
2019-06-26T09:13:03.196Z,35.53
2019-06-26T09:14:03.193Z,35.22
2019-06-26T09:15:03.559Z,34.85
2019-06-26T09:16:03.747Z,34.91
2019-06-26T09:17:03.180Z,33.67
2019-06-26T09:18:03.174Z,33.89
2019-06-26T09:19:03.153Z,34.56
2019-06-26T09:20:03.158Z,34.87
2019-06-26T09:21:03.155Z,34.63
2019-06-26T09:22:03.135Z,33.41
2019-06-26T09:23:03.114Z,32.18
2019-06-26T09:24:03.121Z,32.57
2019-06-26T09:25:19.812Z,34.05
2019-06-26T09:26:04.133Z,34.93
2019-06-26T09:27:03.098Z,33.03
2019-06-26T09:28:03.095Z,31.63
2019-06-26T09:29:03.075Z,30.14
2019-06-26T09:30:03.126Z,30.06
2019-06-26T09:31:03.107Z,29.91
2019-06-26T09:32:03.055Z,32.53
2019-06-26T09:33:03.048Z,30.99
2019-06-26T09:34:03.050Z,30.98
2019-06-26T09:35:03.030Z,30.46
2019-06-26T09:36:06.729Z,28.41
2019-06-26T09:37:03.022Z,29.80
2019-06-26T09:38:03.013Z,31.58
2019-06-26T09:39:03.056Z,30.86
2019-06-26T09:40:03.088Z,32.21
2019-06-26T09:41:03.031Z,31.74
2019-06-26T09:42:03.026Z,32.06
2019-06-26T09:43:02.979Z,34.06
2019-06-26T09:44:03.057Z,34.89
2019-06-26T09:45:02.966Z,36.83
2019-06-26T09:46:03.210Z,34.53
2019-06-26T09:47:02.950Z,33.04
2019-06-26T09:48:02.959Z,33.33
2019-06-26T09:49:02.949Z,33.09
2019-06-26T09:50:03.049Z,33.75
2019-06-26T09:51:03.024Z,32.54
2019-06-26T09:52:02.928Z,31.71
2019-06-26T09:53:05.301Z,31.20
2019-06-26T09:54:02.937Z,31.55
2019-06-26T09:55:02.893Z,30.32
2019-06-26T09:56:04.131Z,30.94
2019-06-26T09:57:02.890Z,31.12
2019-06-26T09:58:02.876Z,32.23
2019-06-26T09:59:02.866Z,30.85
2019-06-26T10:00:02.869Z,30.39
2019-06-26T10:01:04.149Z,30.54
2019-06-26T10:02:02.860Z,29.19
2019-06-26T10:03:02.851Z,28.59
2019-06-26T10:04:02.899Z,29.79
2019-06-26T10:05:02.978Z,29.00
2019-06-26T10:06:03.410Z,29.11
2019-06-26T10:07:02.794Z,30.06
2019-06-26T10:08:02.788Z,29.11
2019-06-26T10:09:02.797Z,30.52
2019-06-26T10:10:02.832Z,31.66
2019-06-26T10:11:03.313Z,33.61
2019-06-26T10:12:02.769Z,33.40
2019-06-26T10:13:02.757Z,32.01
2019-06-26T10:14:02.750Z,31.72
2019-06-26T10:15:02.758Z,31.35
2019-06-26T10:16:02.730Z,32.06
2019-06-26T10:17:03.322Z,33.81
2019-06-26T10:18:02.722Z,33.72
2019-06-26T10:19:09.973Z,32.81
2019-06-26T10:20:03.849Z,31.71
2019-06-26T10:21:02.725Z,32.26
2019-06-26T10:22:02.718Z,34.57
2019-06-26T10:23:02.682Z,35.85
2019-06-26T10:24:02.684Z,34.88
2019-06-26T10:25:02.669Z,34.71
2019-06-26T10:26:02.649Z,35.06
2019-06-26T10:27:03.320Z,33.86
2019-06-26T10:28:02.635Z,34.90
2019-06-26T10:29:02.626Z,34.96
2019-06-26T10:30:02.685Z,34.88
2019-06-26T10:31:02.618Z,36.11
2019-06-26T10:32:03.298Z,38.93
2019-06-26T10:33:02.645Z,39.99
2019-06-26T10:34:02.598Z,40.59
2019-06-26T10:35:02.585Z,40.98
2019-06-26T10:36:02.578Z,40.47
2019-06-26T10:37:03.299Z,41.54
2019-06-26T10:38:02.583Z,41.56
2019-06-26T10:39:02.568Z,41.09
2019-06-26T10:40:02.561Z,42.86
2019-06-26T10:41:02.541Z,42.97
2019-06-26T10:42:02.528Z,42.57
2019-06-26T10:43:03.161Z,41.21
2019-06-26T10:44:02.509Z,42.45
2019-06-26T10:45:02.518Z,42.25
2019-06-26T10:46:02.491Z,41.91
2019-06-26T10:47:02.485Z,42.63
2019-06-26T10:48:03.135Z,43.26
2019-06-26T10:49:02.468Z,44.17
2019-06-26T10:50:02.472Z,44.31
2019-06-26T10:51:02.469Z,45.18
2019-06-26T10:52:02.457Z,47.23
2019-06-26T10:53:04.259Z,46.50
2019-06-26T10:54:02.415Z,47.13
2019-06-26T10:55:02.406Z,48.00
2019-06-26T10:56:02.399Z,48.88
2019-06-26T10:57:02.402Z,49.05
2019-06-26T10:58:03.054Z,47.37
2019-06-26T10:59:02.362Z,44.74
2019-06-26T11:00:02.361Z,45.89
2019-06-26T11:01:02.369Z,45.31
2019-06-26T11:02:02.475Z,45.18
2019-06-26T11:03:03.433Z,46.91
2019-06-26T11:04:02.372Z,44.70
2019-06-26T11:05:02.306Z,46.69
2019-06-26T11:06:02.320Z,47.52
2019-06-26T11:07:02.309Z,48.02
2019-06-26T11:08:02.322Z,48.83
2019-06-26T11:09:02.417Z,49.44
2019-06-26T11:10:02.266Z,49.66
2019-06-26T11:11:02.247Z,48.88
2019-06-26T11:12:02.292Z,49.00
2019-06-26T11:13:03.010Z,50.07
2019-06-26T11:14:02.237Z,50.14
2019-06-26T11:15:02.224Z,49.76
2019-06-26T11:16:02.211Z,50.24
2019-06-26T11:17:02.190Z,49.73
2019-06-26T11:18:03.395Z,49.54
2019-06-26T11:19:02.162Z,49.54
2019-06-26T11:20:02.160Z,50.24
2019-06-26T11:21:02.189Z,50.43
2019-06-26T11:22:02.142Z,49.93
2019-06-26T11:23:02.165Z,48.54
2019-06-26T11:24:02.115Z,50.07
2019-06-26T11:25:02.138Z,49.71
2019-06-26T11:26:02.102Z,48.56
2019-06-26T11:27:02.092Z,50.04
2019-06-26T11:28:04.195Z,50.04
2019-06-26T11:29:02.127Z,50.46
2019-06-26T11:30:02.075Z,50.36
2019-06-26T11:31:02.046Z,49.71
2019-06-26T11:32:02.029Z,50.32
2019-06-26T11:33:03.342Z,51.27
2019-06-26T11:34:02.014Z,50.00
2019-06-26T11:35:02.033Z,50.29
2019-06-26T11:36:02.008Z,50.88
2019-06-26T11:37:04.093Z,50.22
2019-06-26T11:38:03.207Z,50.81
2019-06-26T11:39:02.032Z,50.61
2019-06-26T11:40:02.115Z,51.12
2019-06-26T11:41:02.151Z,50.37
2019-06-26T11:42:01.933Z,51.54
2019-06-26T11:43:03.127Z,50.83
2019-06-26T11:44:01.909Z,50.61
2019-06-26T11:45:01.922Z,51.07
2019-06-26T11:46:01.917Z,50.00
2019-06-26T11:47:01.889Z,50.32
2019-06-26T11:48:03.078Z,50.90
2019-06-26T11:49:01.877Z,50.71
2019-06-26T11:50:01.850Z,50.59
2019-06-26T11:51:01.871Z,49.98
2019-06-26T11:52:01.892Z,50.04
2019-06-26T11:53:01.821Z,48.07
2019-06-26T11:54:04.064Z,48.17
2019-06-26T11:55:03.634Z,48.24
2019-06-26T11:56:01.792Z,49.73
2019-06-26T11:57:01.783Z,48.97
2019-06-26T11:58:01.770Z,50.14
2019-06-26T11:59:04.413Z,49.07
2019-06-26T12:00:02.086Z,48.68
2019-06-26T12:01:01.895Z,49.98
2019-06-26T12:02:01.729Z,50.26
2019-06-26T12:03:01.740Z,49.88
2019-06-26T12:04:04.246Z,49.61
2019-06-26T12:05:01.794Z,50.07
2019-06-26T12:06:15.200Z,49.85
2019-06-26T12:07:02.799Z,49.98
2019-06-26T12:08:01.682Z,50.16
2019-06-26T12:09:03.161Z,49.98
2019-06-26T12:10:01.787Z,49.98
2019-06-26T12:11:01.640Z,49.27
2019-06-26T12:12:01.628Z,49.56
2019-06-26T12:13:04.067Z,50.14
2019-06-26T12:14:04.707Z,48.27
2019-06-26T12:15:01.643Z,48.95
2019-06-26T12:16:01.581Z,47.39
2019-06-26T12:17:01.570Z,49.15
2019-06-26T12:18:01.563Z,48.97
2019-06-26T12:19:03.268Z,48.75
2019-06-26T12:20:16.933Z,48.56
2019-06-26T12:21:02.530Z,47.46
2019-06-26T12:22:01.527Z,47.29
2019-06-26T12:23:01.509Z,46.61
2019-06-26T12:24:01.544Z,47.22
2019-06-26T12:25:01.489Z,48.41
2019-06-26T12:26:01.483Z,48.80
2019-06-26T12:27:01.474Z,49.39
2019-06-26T12:28:01.455Z,48.63
2019-06-26T12:29:01.454Z,48.51
2019-06-26T12:30:03.502Z,49.39
2019-06-26T12:31:01.428Z,48.61
2019-06-26T12:32:01.433Z,48.97
2019-06-26T12:33:03.206Z,46.26
2019-06-26T12:34:01.604Z,47.34
2019-06-26T12:35:03.010Z,47.24
2019-06-26T12:36:01.379Z,48.02
2019-06-26T12:37:01.361Z,48.32
2019-06-26T12:38:01.369Z,47.53
2019-06-26T12:39:01.347Z,46.95
2019-06-26T12:40:03.236Z,45.26
2019-06-26T12:41:01.323Z,46.46
2019-06-26T12:42:01.355Z,46.36
2019-06-26T12:43:01.307Z,46.68
2019-06-26T12:44:01.298Z,46.95
2019-06-26T12:45:03.654Z,46.58
2019-06-26T12:46:01.305Z,46.21
2019-06-26T12:47:01.261Z,46.31
2019-06-26T12:48:01.247Z,46.41
2019-06-26T12:49:01.247Z,46.89
2019-06-26T12:50:03.331Z,46.99
2019-06-26T12:51:01.227Z,45.51
2019-06-26T12:52:01.214Z,45.43